Time;durP1;ratioP1;P1;durP2;ratioP2;P2;SDS_P1;SDS_P2;PMS_P1;PMS_P2;Temp;Humidity;BMP_temperature;BMP_pressure;BME280_temperature;BME280_humidity;BME280_pressure;Samples;Min_cycle;Max_cycle;Signal;HPM_P1;HPM_P2
2022/08/09 00:02:22;;;;;;;2.65;1.13;;;;;;;-148.56;100.00;61375.16;4935927;28;20493;-29
2022/08/09 00:04:49;;;;;;;2.03;1.10;;;;;;;-148.56;100.00;61375.16;4939039;28;20022;-29
2022/08/09 00:07:14;;;;;;;2.80;1.35;;;;;;;-148.56;100.00;61375.16;4935193;28;20026;-29
2022/08/09 00:09:40;;;;;;;2.08;1.23;;;;;;;-148.56;100.00;61375.16;4945373;28;20026;-29
2022/08/09 00:12:05;;;;;;;5.53;1.15;;;;;;;-148.56;100.00;61375.16;4940677;28;20828;-26
2022/08/09 00:14:31;;;;;;;2.40;1.17;;;;;;;-148.56;100.00;61375.16;4933296;28;21131;-26
2022/08/09 00:16:56;;;;;;;3.05;1.05;;;;;;;-148.56;100.00;61375.16;4933644;28;20652;-26
2022/08/09 00:19:22;;;;;;;2.30;1.00;;;;;;;-148.56;100.00;61375.16;4944765;28;20040;-31
2022/08/09 00:21:47;;;;;;;2.25;1.33;;;;;;;-148.56;100.00;61375.16;4941415;28;20037;-31
2022/08/09 00:24:13;;;;;;;2.20;1.10;;;;;;;-148.56;100.00;61375.16;4931063;28;20038;-27
2022/08/09 00:26:38;;;;;;;2.72;1.17;;;;;;;-148.56;100.00;61375.16;4932493;28;20034;-29
2022/08/09 00:29:04;;;;;;;2.10;1.20;;;;;;;-148.56;100.00;61375.16;4937574;28;20030;-30
2022/08/09 00:31:29;;;;;;;1.88;1.20;;;;;;;-148.56;100.00;61375.16;4945269;28;20592;-28
2022/08/09 00:33:55;;;;;;;2.63;1.08;;;;;;;-148.56;100.00;61375.16;4941804;28;22070;-32
2022/08/09 00:36:21;;;;;;;1.15;1.00;;;;;;;-148.56;100.00;61375.16;4942247;28;20030;-28
2022/08/09 00:38:46;;;;;;;2.83;1.10;;;;;;;-148.56;100.00;61375.16;4938471;28;20070;-30
2022/08/09 00:41:12;;;;;;;5.15;1.25;;;;;;;-148.56;100.00;61375.16;4940852;28;20027;-29
2022/08/09 00:43:39;;;;;;;2.97;1.20;;;;;;;-148.56;100.00;61375.16;4941026;28;20066;-31
2022/08/09 00:46:05;;;;;;;2.83;1.08;;;;;;;-148.56;100.00;61375.16;4946656;28;22547;-30
2022/08/09 00:48:31;;;;;;;1.80;1.02;;;;;;;-148.56;100.00;61375.16;4946435;28;20030;-27
2022/08/09 00:50:56;;;;;;;3.72;1.33;;;;;;;-148.56;100.00;61375.16;4941049;28;20557;-27
2022/08/09 00:53:22;;;;;;;2.40;1.15;;;;;;;-148.56;100.00;61375.16;4944000;28;20027;-30
2022/08/09 00:55:47;;;;;;;1.58;1.02;;;;;;;-148.56;100.00;61375.16;4940521;28;20046;-35
2022/08/09 00:58:12;;;;;;;3.47;1.08;;;;;;;-148.56;100.00;61375.16;4934592;28;20078;-27
2022/08/09 01:00:38;;;;;;;2.50;1.00;;;;;;;-148.56;100.00;61375.16;4947175;28;20930;-32
2022/08/09 01:03:16;;;;;;;3.63;1.30;;;;;;;-148.56;100.00;61375.16;4943536;28;20125;-28
2022/08/09 01:05:58;;;;;;;3.60;1.10;;;;;;;-148.56;100.00;61375.16;4935547;28;20034;-27
2022/08/09 01:08:27;;;;;;;;;;;;;;;-148.56;100.00;61375.16;4940737;28;21513;-27
2022/08/09 01:10:52;;;;;;;2.00;0.95;;;;;;;-148.56;100.00;61375.16;4939696;28;19918;-33
2022/08/09 01:13:20;;;;;;;3.03;1.40;;;;;;;-148.56;100.00;61375.16;4947085;28;20084;-28
2022/08/09 01:15:46;;;;;;;2.67;0.95;;;;;;;-148.56;100.00;61375.16;4938307;28;20062;-32
2022/08/09 01:18:14;;;;;;;2.10;1.08;;;;;;;-148.56;100.00;61375.16;4947375;28;20786;-34
2022/08/09 01:20:58;;;;;;;1.25;0.93;;;;;;;-148.56;100.00;61375.16;4945419;28;20037;-28
2022/08/09 01:24:04;;;;;;;6.38;1.33;;;;;;;-148.56;100.00;61375.16;4943340;28;22024;-33
2022/08/09 01:26:52;;;;;;;2.50;1.10;;;;;;;-148.56;100.00;61375.16;4935404;28;20093;-31
2022/08/09 01:29:18;;;;;;;3.67;1.02;;;;;;;-148.56;100.00;61375.16;4921217;28;20037;-31
2022/08/09 01:31:44;;;;;;;3.42;1.15;;;;;;;-148.56;100.00;61375.16;4944839;28;20046;-29
2022/08/09 01:34:11;;;;;;;2.67;1.10;;;;;;;-148.56;100.00;61375.16;4936733;28;20309;-27
2022/08/09 01:36:36;;;;;;;2.78;1.10;;;;;;;-148.56;100.00;61375.16;4950521;28;20042;-26
2022/08/09 01:39:02;;;;;;;1.55;0.88;;;;;;;-148.56;100.00;61375.16;4918872;28;20030;-34
2022/08/09 01:41:28;;;;;;;2.17;0.90;;;;;;;-148.56;100.00;61375.16;4936124;28;20064;-33
2022/08/09 01:43:56;;;;;;;1.00;0.90;;;;;;;-148.56;100.00;61375.16;4920439;28;20128;-31
2022/08/09 01:46:32;;;;;;;5.28;1.15;;;;;;;-148.56;100.00;61375.16;4936883;28;20038;-30
2022/08/09 01:49:18;;;;;;;3.97;1.00;;;;;;;-148.56;100.00;61375.16;4925615;28;20041;-30
2022/08/09 01:51:45;;;;;;;1.88;1.02;;;;;;;-148.56;100.00;61375.16;4939681;28;20324;-29
2022/08/09 01:54:11;;;;;;;2.88;1.25;;;;;;;-148.56;100.00;61375.16;4937526;28;20041;-27
2022/08/09 01:56:38;;;;;;;1.95;0.98;;;;;;;-148.56;100.00;61375.16;4939291;28;20396;-30
2022/08/09 01:59:06;;;;;;;3.42;0.90;;;;;;;-148.56;100.00;61375.16;4937949;28;20034;-29
2022/08/09 02:01:32;;;;;;;2.38;1.00;;;;;;;-148.56;100.00;61375.16;4938018;28;20117;-28
2022/08/09 02:03:57;;;;;;;2.00;0.98;;;;;;;-148.56;100.00;61375.16;4939680;28;20034;-33
2022/08/09 02:07:08;;;;;;;2.13;1.15;;;;;;;-148.56;100.00;61375.16;4946521;28;20395;-27
2022/08/09 02:09:09;;;;;;;3.83;1.10;;;;;;;-148.56;100.00;61375.16;4936982;28;22114;-30
2022/08/09 02:11:35;;;;;;;1.17;0.73;;;;;;;-148.56;100.00;61375.16;4938166;28;20045;-30
2022/08/09 02:14:02;;;;;;;3.08;1.10;;;;;;;-148.56;100.00;61375.16;4927091;28;20336;-29
2022/08/09 02:16:32;;;;;;;2.15;1.05;;;;;;;-148.56;100.00;61375.16;4940899;28;20034;-28
2022/08/09 02:18:58;;;;;;;2.00;0.90;;;;;;;-148.56;100.00;61375.16;4937654;28;20743;-29
2022/08/09 02:21:23;;;;;;;1.55;0.95;;;;;;;-148.56;100.00;61375.16;4943927;28;20042;-28
2022/08/09 02:23:54;;;;;;;4.07;1.10;;;;;;;-148.56;100.00;61375.16;4944695;28;20026;-29
2022/08/09 02:26:20;;;;;;;2.78;1.15;;;;;;;-148.56;100.00;61375.16;4924376;28;20037;-28
2022/08/09 02:28:54;;;;;;;2.33;0.93;;;;;;;-148.56;100.00;61375.16;4921691;28;20811;-30
2022/08/09 02:31:27;;;;;;;2.33;1.13;;;;;;;-148.56;100.00;61375.16;4940639;28;20030;-29
2022/08/09 02:33:53;;;;;;;2.15;0.90;;;;;;;-148.56;100.00;61375.16;4938009;28;20117;-30
2022/08/09 02:36:21;;;;;;;3.30;0.95;;;;;;;-148.56;100.00;61375.16;4943285;28;20038;-31
2022/08/09 02:38:50;;;;;;;3.20;1.10;;;;;;;-148.56;100.00;61375.16;4936527;28;20117;-30
2022/08/09 02:41:23;;;;;;;1.83;0.90;;;;;;;-148.56;100.00;61375.16;4920125;28;20941;-28
2022/08/09 02:43:49;;;;;;;4.93;1.15;;;;;;;-148.56;100.00;61375.16;4937271;28;20034;-31
2022/08/09 02:46:14;;;;;;;2.97;0.90;;;;;;;-148.56;100.00;61375.16;4944127;28;20090;-31
2022/08/09 02:48:39;;;;;;;3.92;0.90;;;;;;;-148.56;100.00;61375.16;4938232;28;20470;-28
2022/08/09 02:51:05;;;;;;;1.65;0.98;;;;;;;-148.56;100.00;61375.16;4943538;28;20136;-29
2022/08/09 02:53:33;;;;;;;2.55;1.17;;;;;;;-148.56;100.00;61375.16;4941146;28;20046;-30
2022/08/09 02:55:59;;;;;;;1.70;0.82;;;;;;;-148.56;100.00;61375.16;4937421;28;20037;-29
2022/08/09 02:58:26;;;;;;;2.08;0.95;;;;;;;-148.56;100.00;61375.16;4942699;28;20810;-32
2022/08/09 03:00:52;;;;;;;1.52;1.10;;;;;;;-148.56;100.00;61375.16;4941479;28;20512;-31
2022/08/09 03:03:18;;;;;;;1.67;0.95;;;;;;;-148.56;100.00;61375.16;4937540;28;20030;-30
2022/08/09 03:05:43;;;;;;;2.75;1.35;;;;;;;-148.56;100.00;61375.16;4940803;28;20750;-31
2022/08/09 03:08:08;;;;;;;1.75;0.90;;;;;;;-148.56;100.00;61375.16;4922466;28;20434;-31
2022/08/09 03:10:35;;;;;;;2.38;1.10;;;;;;;-148.56;100.00;61375.16;4933809;28;21801;-27
2022/08/09 03:13:00;;;;;;;3.22;0.98;;;;;;;-148.56;100.00;61375.16;4935395;28;20246;-28
2022/08/09 03:15:26;;;;;;;1.15;0.70;;;;;;;-148.56;100.00;61375.16;4926392;28;20026;-28
2022/08/09 03:17:51;;;;;;;2.42;0.82;;;;;;;-148.56;100.00;61375.16;4938378;28;20034;-29
2022/08/09 03:20:17;;;;;;;3.35;1.20;;;;;;;-148.56;100.00;61375.16;4942105;28;21148;-29
2022/08/09 03:22:45;;;;;;;3.70;0.80;;;;;;;-148.56;100.00;61375.16;4923192;28;20576;-31
2022/08/09 03:25:12;;;;;;;1.85;1.00;;;;;;;-148.56;100.00;61375.16;4941487;28;20089;-27
2022/08/09 03:27:37;;;;;;;1.80;0.90;;;;;;;-148.56;100.00;61375.16;4938244;28;20110;-30
2022/08/09 03:30:03;;;;;;;3.75;1.20;;;;;;;-148.56;100.00;61375.16;4940707;28;20773;-29
2022/08/09 03:32:29;;;;;;;1.75;1.00;;;;;;;-148.56;100.00;61375.16;4933365;28;20041;-31
2022/08/09 03:34:55;;;;;;;1.50;1.05;;;;;;;-148.56;100.00;61375.16;4942974;28;20411;-25
2022/08/09 03:37:20;;;;;;;2.65;0.98;;;;;;;-148.56;100.00;61375.16;4937583;28;20030;-29
2022/08/09 03:39:47;;;;;;;1.83;0.98;;;;;;;-148.56;100.00;61375.16;4933958;28;20034;-29
2022/08/09 03:42:13;;;;;;;3.50;0.88;;;;;;;-148.56;100.00;61375.16;4933194;28;20100;-26
2022/08/09 03:44:38;;;;;;;3.75;0.80;;;;;;;-148.56;100.00;61375.16;4943645;28;20034;-31
2022/08/09 03:47:04;;;;;;;3.53;1.10;;;;;;;-148.56;100.00;61375.16;4941249;28;20038;-27
2022/08/09 03:49:29;;;;;;;1.23;1.00;;;;;;;-148.56;100.00;61375.16;4940865;28;20558;-28
2022/08/09 03:51:56;;;;;;;2.53;1.00;;;;;;;-148.56;100.00;61375.16;4932103;28;20030;-28
2022/08/09 03:54:23;;;;;;;2.30;1.30;;;;;;;-148.56;100.00;61375.16;4938403;28;20042;-29
2022/08/09 03:56:48;;;;;;;2.15;1.02;;;;;;;-148.56;100.00;61375.16;4938486;28;20053;-29
2022/08/09 03:59:14;;;;;;;1.73;1.20;;;;;;;-148.56;100.00;61375.16;4940447;28;20050;-32
2022/08/09 04:01:40;;;;;;;3.30;1.02;;;;;;;-148.56;100.00;61375.16;4937311;28;20246;-30
2022/08/09 04:04:05;;;;;;;2.20;0.98;;;;;;;-148.56;100.00;61375.16;4927253;28;20030;-25
2022/08/09 04:06:31;;;;;;;3.72;1.10;;;;;;;-148.56;100.00;61375.16;4932272;28;20041;-30
2022/08/09 04:08:56;;;;;;;1.67;0.95;;;;;;;-148.56;100.00;61375.16;4957297;28;21682;-30
2022/08/09 04:11:21;;;;;;;1.48;0.90;;;;;;;-148.56;100.00;61375.16;4939241;28;20057;-27
2022/08/09 04:13:47;;;;;;;2.65;0.90;;;;;;;-148.56;100.00;61375.16;4944058;28;20780;-32
2022/08/09 04:16:12;;;;;;;3.53;1.10;;;;;;;-148.56;100.00;61375.16;4932954;28;20037;-28
2022/08/09 04:18:39;;;;;;;3.83;1.30;;;;;;;-148.56;100.00;61375.16;4939338;28;20104;-27
2022/08/09 04:21:05;;;;;;;1.25;0.90;;;;;;;-148.56;100.00;61375.16;4942377;28;20036;-29
2022/08/09 04:23:31;;;;;;;1.63;0.88;;;;;;;-148.56;100.00;61375.16;4947696;28;20030;-29
2022/08/09 04:25:56;;;;;;;1.58;1.02;;;;;;;-148.56;100.00;61375.16;4946865;28;20249;-31
2022/08/09 04:28:23;;;;;;;2.80;1.00;;;;;;;-148.56;100.00;61375.16;4948409;28;20038;-29
2022/08/09 04:30:48;;;;;;;3.00;1.10;;;;;;;-148.56;100.00;61375.16;4948463;28;20034;-31
2022/08/09 04:33:14;;;;;;;3.50;1.33;;;;;;;-148.56;100.00;61375.16;4944953;28;20158;-28
2022/08/09 04:35:41;;;;;;;2.55;1.08;;;;;;;-148.56;100.00;61375.16;4945395;28;20073;-29
2022/08/09 04:38:06;;;;;;;2.55;1.20;;;;;;;-148.56;100.00;61375.16;4939140;28;20518;-24
2022/08/09 04:40:47;;;;;;;1.63;1.10;;;;;;;-148.56;100.00;61375.16;4944704;28;20035;-31
2022/08/09 04:43:13;;;;;;;2.05;1.00;;;;;;;-148.56;100.00;61375.16;4948356;28;20057;-29
2022/08/09 04:45:40;;;;;;;2.72;1.10;;;;;;;-148.56;100.00;61375.16;4942693;28;20030;-26
2022/08/09 04:48:05;;;;;;;2.03;1.08;;;;;;;-148.56;100.00;61375.16;4941173;28;20022;-27
2022/08/09 04:50:31;;;;;;;1.83;0.90;;;;;;;-148.56;100.00;61375.16;4945783;28;20286;-29
2022/08/09 04:52:56;;;;;;;2.30;1.30;;;;;;;-148.56;100.00;61375.16;4943766;28;20061;-26
2022/08/09 04:55:21;;;;;;;1.95;0.90;;;;;;;-148.56;100.00;61375.16;4947065;28;20692;-28
2022/08/09 04:57:47;;;;;;;3.15;1.10;;;;;;;-148.56;100.00;61375.16;4943049;28;20038;-28
2022/08/09 05:00:12;;;;;;;3.20;1.10;;;;;;;-148.56;100.00;61375.16;4943774;28;21428;-27
2022/08/09 05:02:38;;;;;;;3.22;1.17;;;;;;;-148.56;100.00;61375.16;4941095;28;20034;-27
2022/08/09 05:05:03;;;;;;;3.15;1.00;;;;;;;-148.56;100.00;61375.16;4944510;28;20039;-29
2022/08/09 05:07:29;;;;;;;2.25;1.00;;;;;;;-148.56;100.00;61375.16;4940242;28;21050;-29
2022/08/09 05:09:54;;;;;;;1.75;1.02;;;;;;;-148.56;100.00;61375.16;4946760;28;20112;-34
2022/08/09 05:12:20;;;;;;;2.17;1.10;;;;;;;-148.56;100.00;61375.16;4945366;28;20128;-29
2022/08/09 05:14:45;;;;;;;2.75;1.02;;;;;;;-148.56;100.00;61375.16;4944913;28;20030;-25
2022/08/09 05:17:10;;;;;;;4.70;1.15;;;;;;;-148.56;100.00;61375.16;4944813;28;20083;-31
2022/08/09 05:19:36;;;;;;;2.45;1.20;;;;;;;-148.56;100.00;61375.16;4945217;28;20550;-30
2022/08/09 05:22:01;;;;;;;2.17;1.20;;;;;;;-148.56;100.00;61375.16;4943356;28;20026;-25
2022/08/09 05:24:27;;;;;;;6.07;1.30;;;;;;;-148.56;100.00;61375.16;4945558;28;20137;-31
2022/08/09 05:26:52;;;;;;;1.88;1.08;;;;;;;-148.56;100.00;61375.16;4945064;28;20498;-28
2022/08/09 05:29:20;;;;;;;2.80;1.15;;;;;;;-148.56;100.00;61375.16;4945823;28;20053;-33
2022/08/09 05:31:46;;;;;;;2.28;1.10;;;;;;;-148.56;100.00;61375.16;4941967;28;20038;-29
2022/08/09 05:34:12;;;;;;;3.53;1.10;;;;;;;-148.56;100.00;61375.16;4943243;28;20053;-30
2022/08/09 05:36:37;;;;;;;1.83;0.90;;;;;;;-148.56;100.00;61375.16;4940813;28;20707;-29
2022/08/09 05:39:02;;;;;;;7.28;1.42;;;;;;;-148.56;100.00;61375.16;4943566;28;20046;-34
2022/08/09 05:41:28;;;;;;;6.97;1.20;;;;;;;-148.56;100.00;61375.16;4942338;28;20714;-31
2022/08/09 05:43:53;;;;;;;2.30;1.00;;;;;;;-148.56;100.00;61375.16;4942037;28;20084;-27
2022/08/09 05:46:19;;;;;;;3.70;1.10;;;;;;;-148.56;100.00;61375.16;4947978;28;20030;-28
2022/08/09 05:48:44;;;;;;;3.75;1.30;;;;;;;-148.56;100.00;61375.16;4941550;28;20046;-30
2022/08/09 05:51:09;;;;;;;3.47;1.30;;;;;;;-148.56;100.00;61375.16;4943868;28;20554;-29
2022/08/09 05:53:35;;;;;;;2.53;1.20;;;;;;;-148.56;100.00;61375.16;4945941;28;20787;-29
2022/08/09 05:56:00;;;;;;;4.53;1.20;;;;;;;-148.56;100.00;61375.16;4944806;28;20034;-26
2022/08/09 05:58:26;;;;;;;5.35;1.15;;;;;;;-148.56;100.00;61375.16;4943805;28;20026;-28
2022/08/09 06:00:51;;;;;;;3.33;1.10;;;;;;;-148.56;100.00;61375.16;4944747;28;20058;-29
2022/08/09 06:03:16;;;;;;;5.30;1.05;;;;;;;-148.56;100.00;61375.16;4947227;28;20026;-29
2022/08/09 06:05:42;;;;;;;2.80;1.13;;;;;;;-148.56;100.00;61375.16;4952939;28;20045;-27
2022/08/09 06:08:07;;;;;;;2.70;1.42;;;;;;;-148.56;100.00;61375.16;4946192;28;20033;-27
2022/08/09 06:10:38;;;;;;;3.30;1.30;;;;;;;-148.56;100.00;61375.16;4952887;28;20648;-28
2022/08/09 06:13:08;;;;;;;8.02;1.40;;;;;;;-148.56;100.00;61375.16;4944017;28;20394;-28
2022/08/09 06:15:33;;;;;;;8.35;1.20;;;;;;;-148.56;100.00;61375.16;4941704;28;20030;-26
2022/08/09 06:17:59;;;;;;;3.67;1.23;;;;;;;-148.56;100.00;61375.16;4945003;28;20045;-30
2022/08/09 06:20:24;;;;;;;2.83;1.20;;;;;;;-148.56;100.00;61375.16;4949412;28;20034;-27
2022/08/09 06:22:49;;;;;;;3.30;1.48;;;;;;;-148.56;100.00;61375.16;4944474;28;20031;-26
2022/08/09 06:25:15;;;;;;;2.55;1.10;;;;;;;-148.56;100.00;61375.16;4951425;28;20825;-29
2022/08/09 06:27:41;;;;;;;3.25;1.15;;;;;;;-148.56;100.00;61375.16;4945719;28;20608;-30
2022/08/09 06:30:07;;;;;;;9.15;1.80;;;;;;;-148.56;100.00;61375.16;4948092;28;20042;-27
2022/08/09 06:32:32;;;;;;;10.63;1.73;;;;;;;-148.56;100.00;61375.16;4943654;28;20038;-25
2022/08/09 06:34:58;;;;;;;8.70;1.70;;;;;;;-148.56;100.00;61375.16;4942096;28;20061;-25
2022/08/09 06:37:23;;;;;;;10.27;2.40;;;;;;;-148.56;100.00;61375.16;4944030;28;20525;-32
2022/08/09 06:39:49;;;;;;;9.80;2.97;;;;;;;-148.56;100.00;61375.16;4938450;28;20026;-26
2022/08/09 06:42:15;;;;;;;8.55;2.28;;;;;;;-148.56;100.00;61375.16;4935102;28;20026;-28
2022/08/09 06:44:41;;;;;;;7.43;2.90;;;;;;;-148.56;100.00;61375.16;4929153;28;20038;-27
2022/08/09 06:47:06;;;;;;;10.77;2.92;;;;;;;-148.56;100.00;61375.16;4930303;28;20057;-28
2022/08/09 06:49:32;;;;;;;9.70;2.53;;;;;;;-148.56;100.00;61375.16;4936839;28;20692;-28
2022/08/09 06:51:57;;;;;;;10.10;3.03;;;;;;;-148.56;100.00;61375.16;4933147;28;20097;-29
2022/08/09 06:54:22;;;;;;;6.20;2.70;;;;;;;-148.56;100.00;61375.16;4928866;28;20068;-25
2022/08/09 06:56:48;;;;;;;11.05;2.42;;;;;;;-148.56;100.00;61375.16;4935439;28;20030;-26
2022/08/09 06:59:13;;;;;;;9.48;2.65;;;;;;;-148.56;100.00;61375.16;4935405;28;20034;-28
2022/08/09 07:01:39;;;;;;;16.52;2.50;;;;;;;-148.56;100.00;61375.16;4939648;28;20030;-27
2022/08/09 07:04:04;;;;;;;7.22;2.03;;;;;;;-148.56;100.00;61375.16;4926797;28;20573;-27
2022/08/09 07:06:30;;;;;;;5.45;2.75;;;;;;;-148.56;100.00;61375.16;4938109;28;20038;-28
2022/08/09 07:08:55;;;;;;;8.27;2.25;;;;;;;-148.56;100.00;61375.16;4935816;28;20041;-26
2022/08/09 07:11:21;;;;;;;6.70;2.40;;;;;;;-148.56;100.00;61375.16;4936177;28;20030;-26
2022/08/09 07:13:46;;;;;;;8.30;2.20;;;;;;;-148.56;100.00;61375.16;4934336;28;20061;-28
2022/08/09 07:16:11;;;;;;;5.15;1.95;;;;;;;-148.56;100.00;61375.16;4936346;28;20026;-27
2022/08/09 07:18:37;;;;;;;12.68;2.10;;;;;;;-148.56;100.00;61375.16;4934442;28;20027;-27
2022/08/09 07:21:02;;;;;;;13.18;2.33;;;;;;;-148.56;100.00;61375.16;4941840;28;20499;-26
2022/08/09 07:23:28;;;;;;;8.80;2.42;;;;;;;-148.56;100.00;61375.16;4943472;28;20485;-25
2022/08/09 07:25:53;;;;;;;7.50;2.35;;;;;;;-148.56;100.00;61375.16;4949487;28;20115;-26
2022/08/09 07:28:19;;;;;;;13.23;2.13;;;;;;;-148.56;100.00;61375.16;4933665;28;23405;-27
2022/08/09 07:30:45;;;;;;;4.60;2.20;;;;;;;-148.56;100.00;61375.16;4938302;28;20041;-28
2022/08/09 07:33:10;;;;;;;15.20;2.05;;;;;;;-148.56;100.00;61375.16;4933344;28;20034;-26
2022/08/09 07:35:36;;;;;;;4.22;1.80;;;;;;;-148.56;100.00;61375.16;4928143;28;20029;-28
2022/08/09 07:38:01;;;;;;;6.57;2.00;;;;;;;-148.56;100.00;61375.16;4931213;28;20088;-30
2022/08/09 07:40:27;;;;;;;4.43;1.73;;;;;;;-148.56;100.00;61375.16;4931980;28;20680;-26
2022/08/09 07:42:59;;;;;;;7.60;2.00;;;;;;;-148.56;100.00;61375.16;4933419;28;20026;-27
2022/08/09 07:45:26;;;;;;;7.72;1.52;;;;;;;-148.56;100.00;61375.16;4931857;28;20540;-30
2022/08/09 07:47:52;;;;;;;4.70;1.80;;;;;;;-148.56;100.00;61375.16;4930509;28;20057;-26
2022/08/09 07:50:19;;;;;;;4.97;1.73;;;;;;;-148.56;100.00;61375.16;4935064;28;20026;-27
2022/08/09 07:52:45;;;;;;;7.32;1.60;;;;;;;-148.56;100.00;61375.16;4932578;28;20026;-29
2022/08/09 07:55:10;;;;;;;6.13;1.63;;;;;;;-148.56;100.00;61375.16;4931986;28;20078;-28
2022/08/09 07:57:35;;;;;;;4.43;1.63;;;;;;;-148.56;100.00;61375.16;4932991;28;21243;-25
2022/08/09 08:00:01;;;;;;;15.98;1.80;;;;;;;-148.56;100.00;61375.16;4930935;28;20073;-25
2022/08/09 08:02:26;;;;;;;5.68;1.50;;;;;;;-148.56;100.00;61375.16;4937415;28;20023;-28
2022/08/09 08:04:52;;;;;;;5.20;1.80;;;;;;;-148.56;100.00;61375.16;4931212;28;20814;-26
2022/08/09 08:07:17;;;;;;;5.38;1.75;;;;;;;-148.56;100.00;61375.16;4936039;28;20046;-25
2022/08/09 08:09:42;;;;;;;6.25;1.65;;;;;;;-148.56;100.00;61375.16;4938855;28;20034;-32
2022/08/09 08:12:08;;;;;;;6.18;1.88;;;;;;;-148.56;100.00;61375.16;4935091;28;20718;-28
2022/08/09 08:14:33;;;;;;;5.70;1.70;;;;;;;-148.56;100.00;61375.16;4939126;28;20034;-31
2022/08/09 08:16:59;;;;;;;4.13;1.60;;;;;;;-148.56;100.00;61375.16;4936486;28;20105;-27
2022/08/09 08:19:24;;;;;;;3.05;1.40;;;;;;;-148.56;100.00;61375.16;4932001;28;20117;-27
2022/08/09 08:21:51;;;;;;;5.65;1.65;;;;;;;-148.56;100.00;61375.16;4937757;28;20030;-27
2022/08/09 08:24:17;;;;;;;5.15;1.67;;;;;;;-148.56;100.00;61375.16;4936161;28;20030;-28
2022/08/09 08:26:42;;;;;;;4.78;1.95;;;;;;;-148.56;100.00;61375.16;4933206;28;20050;-28
2022/08/09 08:29:08;;;;;;;4.45;1.52;;;;;;;-148.56;100.00;61375.16;4937696;28;20058;-29
2022/08/09 08:31:33;;;;;;;11.52;1.73;;;;;;;-148.56;100.00;61375.16;4937408;28;20788;-27
2022/08/09 08:33:58;;;;;;;6.18;2.00;;;;;;;-148.56;100.00;61375.16;4934171;28;20071;-31
2022/08/09 08:36:24;;;;;;;3.40;1.65;;;;;;;-148.56;100.00;61375.16;4930376;28;20790;-28
2022/08/09 08:38:50;;;;;;;3.53;1.83;;;;;;;-148.56;100.00;61375.16;4933619;28;20124;-26
2022/08/09 08:41:15;;;;;;;8.30;1.65;;;;;;;-148.56;100.00;61375.16;4930550;28;20248;-26
2022/08/09 08:43:41;;;;;;;7.90;1.80;;;;;;;-148.56;100.00;61375.16;4935635;28;20090;-29
2022/08/09 08:46:06;;;;;;;2.65;1.60;;;;;;;-148.56;100.00;61375.16;4934793;28;20037;-28
2022/08/09 08:48:32;;;;;;;11.27;2.03;;;;;;;-148.56;100.00;61375.16;4932145;28;20045;-26
2022/08/09 08:50:58;;;;;;;4.68;1.58;;;;;;;-148.56;100.00;61375.16;4937656;28;20042;-28
2022/08/09 08:53:23;;;;;;;4.65;1.90;;;;;;;-148.56;100.00;61375.16;4915325;28;20035;-28
2022/08/09 08:55:49;;;;;;;4.53;1.90;;;;;;;-148.56;100.00;61375.16;4933655;28;20281;-28
2022/08/09 08:58:14;;;;;;;3.65;1.92;;;;;;;-148.56;100.00;61375.16;4925481;28;20737;-29
2022/08/09 09:00:41;;;;;;;6.85;1.75;;;;;;;-148.56;100.00;61375.16;4932510;28;20956;-29
2022/08/09 09:03:07;;;;;;;4.50;1.88;;;;;;;-148.56;100.00;61375.16;4936630;28;20109;-27
2022/08/09 09:05:33;;;;;;;4.45;1.65;;;;;;;-148.56;100.00;61375.16;4933053;28;20038;-30
2022/08/09 09:07:58;;;;;;;7.32;1.65;;;;;;;-148.56;100.00;61375.16;4947942;28;20038;-25
2022/08/09 09:10:25;;;;;;;8.23;2.45;;;;;;;-148.56;100.00;61375.16;4933825;28;20042;-29
2022/08/09 09:12:50;;;;;;;6.13;2.10;;;;;;;-148.56;100.00;61375.16;4946597;28;20062;-26
2022/08/09 09:15:15;;;;;;;8.93;2.47;;;;;;;-148.56;100.00;61375.16;4927324;28;23691;-28
2022/08/09 09:17:41;;;;;;;12.30;2.55;;;;;;;-148.56;100.00;61375.16;4927808;28;20041;-27
2022/08/09 09:20:10;;;;;;;13.60;2.83;;;;;;;-148.56;100.00;61375.16;4926778;28;20034;-28
2022/08/09 09:22:53;;;;;;;15.98;1.80;;;;;;;-148.56;100.00;61375.16;4927860;28;20180;-26
2022/08/09 09:25:31;;;;;;;13.35;2.22;;;;;;;-148.56;100.00;61375.16;4937256;28;20053;-27
2022/08/09 09:27:57;;;;;;;16.63;2.35;;;;;;;-148.56;100.00;61375.16;4941154;28;20034;-25
2022/08/09 09:30:22;;;;;;;7.95;1.88;;;;;;;-148.56;100.00;61375.16;4938942;28;20038;-25
2022/08/09 09:33:03;;;;;;;8.88;2.20;;;;;;;-148.56;100.00;61375.16;4943515;28;20030;-30
2022/08/09 09:35:28;;;;;;;10.07;2.30;;;;;;;-148.56;100.00;61375.16;4939410;28;21007;-27
2022/08/09 09:37:53;;;;;;;9.13;2.30;;;;;;;-148.56;100.00;61375.16;4938461;28;20035;-28
2022/08/09 09:40:19;;;;;;;9.07;2.25;;;;;;;-148.56;100.00;61375.16;4937684;28;20860;-30
2022/08/09 09:42:54;;;;;;;7.53;2.30;;;;;;;-148.56;100.00;61375.16;4942736;28;20092;-27
2022/08/09 09:45:19;;;;;;;8.27;2.63;;;;;;;-148.56;100.00;61375.16;4937785;28;20157;-25
2022/08/09 09:47:45;;;;;;;9.38;2.50;;;;;;;-148.56;100.00;61375.16;4942801;28;20771;-25
2022/08/09 09:50:10;;;;;;;10.10;2.50;;;;;;;-148.56;100.00;61375.16;4937900;28;20050;-24
2022/08/09 09:52:48;;;;;;;4.72;2.00;;;;;;;-148.56;100.00;61375.16;4943546;28;20304;-27
2022/08/09 09:55:14;;;;;;;13.32;2.45;;;;;;;-148.56;100.00;61375.16;4939499;28;20030;-25
2022/08/09 09:57:39;;;;;;;8.27;2.40;;;;;;;-148.56;100.00;61375.16;4942784;28;23452;-25
2022/08/09 10:00:06;;;;;;;9.38;2.40;;;;;;;-148.56;100.00;61375.16;4935614;28;20033;-28
2022/08/09 10:02:44;;;;;;;10.60;2.47;;;;;;;-148.56;100.00;61375.16;4936727;28;20046;-27
2022/08/09 10:05:09;;;;;;;7.78;2.40;;;;;;;-148.56;100.00;61375.16;4939870;28;20034;-26
2022/08/09 10:07:34;;;;;;;9.50;2.33;;;;;;;-148.56;100.00;61375.16;4943319;28;20034;-28
2022/08/09 10:10:00;;;;;;;7.00;2.47;;;;;;;-148.56;100.00;61375.16;4936118;28;20767;-28
2022/08/09 10:12:36;;;;;;;6.72;2.30;;;;;;;-148.56;100.00;61375.16;4939747;28;20041;-26
2022/08/09 10:15:15;;;;;;;5.50;2.33;;;;;;;-148.56;100.00;61375.16;4932916;28;20057;-23
2022/08/09 10:17:42;;;;;;;8.02;2.58;;;;;;;-148.56;100.00;61375.16;4941044;28;20331;-24
2022/08/09 10:20:28;;;;;;;7.47;2.30;;;;;;;-148.56;100.00;61375.16;4938685;28;22737;-24
2022/08/09 10:22:54;;;;;;;6.30;2.17;;;;;;;-148.56;100.00;61375.16;4938407;28;20679;-25
2022/08/09 10:25:20;;;;;;;5.22;2.42;;;;;;;-148.56;100.00;61375.16;4940391;28;20040;-24
2022/08/09 10:27:46;;;;;;;6.30;2.47;;;;;;;-148.56;100.00;61375.16;4941118;28;20650;-25
2022/08/09 10:30:11;;;;;;;7.13;2.30;;;;;;;-148.56;100.00;61375.16;4935461;28;20141;-29
2022/08/09 10:32:37;;;;;;;4.13;2.33;;;;;;;-148.56;100.00;61375.16;4942336;28;20018;-27
2022/08/09 10:35:03;;;;;;;3.38;2.22;;;;;;;-148.56;100.00;61375.16;4937847;28;20040;-24
2022/08/09 10:37:28;;;;;;;3.47;2.10;;;;;;;-148.56;100.00;61375.16;4934895;28;20038;-30
2022/08/09 10:39:53;;;;;;;3.50;1.98;;;;;;;-148.56;100.00;61375.16;4933755;28;20053;-27
2022/08/09 10:42:21;;;;;;;6.07;2.40;;;;;;;-148.56;100.00;61375.16;4938445;28;21042;-29
2022/08/09 10:44:56;;;;;;;4.75;2.05;;;;;;;-148.56;100.00;61375.16;4942113;28;20117;-27
2022/08/09 10:47:56;;;;;;;5.53;2.13;;;;;;;-148.56;100.00;61375.16;4941791;28;20029;-25
2022/08/09 10:53:47;;;;;;;3.97;2.35;;;;;;;-148.56;100.00;61375.16;4939535;28;21191;-26
2022/08/09 10:56:14;;;;;;;;;;;;;;;-148.56;100.00;61375.16;4937268;28;20049;-26
2022/08/09 10:58:39;;;;;;;3.08;2.05;;;;;;;-148.56;100.00;61375.16;4936104;28;19921;-28
2022/08/09 11:01:05;;;;;;;3.83;2.00;;;;;;;-148.56;100.00;61375.16;4943213;28;20030;-27
2022/08/09 11:03:30;;;;;;;3.38;1.80;;;;;;;-148.56;100.00;61375.16;4929274;28;20736;-29
2022/08/09 11:06:14;;;;;;;3.35;1.85;;;;;;;-148.56;100.00;61375.16;4941594;28;20042;-27
2022/08/09 11:08:44;;;;;;;6.18;2.20;;;;;;;-148.56;100.00;61375.16;4940569;28;20034;-29
2022/08/09 11:11:09;;;;;;;4.43;1.60;;;;;;;-148.56;100.00;61375.16;4939640;28;20030;-27
2022/08/09 11:13:35;;;;;;;4.35;1.75;;;;;;;-148.56;100.00;61375.16;4935474;28;20038;-29